createdAt,value
2024-05-09T00:00:37.918Z,80.56
2024-05-09T00:03:47.293Z,80.61
2024-05-09T00:06:52.967Z,80.76
2024-05-09T00:09:57.351Z,80.66
2024-05-09T00:13:01.865Z,80.70
2024-05-09T00:16:06.762Z,80.66
2024-05-09T00:19:13.959Z,80.97
2024-05-09T00:22:18.607Z,80.61
2024-05-09T00:25:23.126Z,80.53
2024-05-09T00:28:28.414Z,80.57
2024-05-09T00:31:32.865Z,80.58
2024-05-09T00:34:39.802Z,80.64
2024-05-09T00:37:44.120Z,80.25
2024-05-09T00:40:48.526Z,81.00
2024-05-09T00:43:53.075Z,80.61
2024-05-09T00:46:58.381Z,80.52
2024-05-09T00:50:10.131Z,80.50
2024-05-09T00:53:21.524Z,80.56
2024-05-09T00:56:26.158Z,80.28
2024-05-09T00:59:32.552Z,80.11
2024-05-09T01:02:36.958Z,80.76
2024-05-09T01:05:44.512Z,80.21
2024-05-09T01:08:48.942Z,80.17
2024-05-09T01:11:53.567Z,80.66
2024-05-09T01:14:58.100Z,80.41
2024-05-09T01:18:04.661Z,80.18
2024-05-09T01:21:13.062Z,80.19
2024-05-09T01:24:20.092Z,80.63
2024-05-09T01:27:24.428Z,80.66
2024-05-09T01:30:34.431Z,79.97
2024-05-09T01:33:41.449Z,80.15
2024-05-09T01:36:45.960Z,80.32
2024-05-09T01:39:52.900Z,80.25
2024-05-09T01:42:57.266Z,80.45
2024-05-09T01:46:01.524Z,80.27
2024-05-09T01:49:06.070Z,80.35
2024-05-09T01:52:10.418Z,80.18
2024-05-09T01:55:17.455Z,80.58
2024-05-09T01:58:21.899Z,80.17
2024-05-09T02:01:26.218Z,80.03
2024-05-09T02:04:30.856Z,80.11
2024-05-09T02:07:35.199Z,80.21
2024-05-09T02:10:42.182Z,79.87
2024-05-09T02:13:46.617Z,80.34
2024-05-09T02:16:51.143Z,80.19
2024-05-09T02:19:55.568Z,80.17
2024-05-09T02:23:00.413Z,79.90
2024-05-09T02:26:07.760Z,80.07
2024-05-09T02:29:12.132Z,79.62
2024-05-09T02:32:16.576Z,80.02
2024-05-09T02:35:20.874Z,79.97
2024-05-09T02:38:25.160Z,80.09
2024-05-09T02:41:29.571Z,80.09
2024-05-09T02:44:34.227Z,79.70
2024-05-09T02:47:38.670Z,79.79
2024-05-09T02:50:40.812Z,80.20
2024-05-09T02:53:45.411Z,80.24
2024-05-09T02:56:49.707Z,80.03
2024-05-09T02:59:53.974Z,79.96
2024-05-09T03:02:55.716Z,79.75
2024-05-09T03:06:00.085Z,80.17
2024-05-09T03:09:04.844Z,80.02
2024-05-09T03:12:12.630Z,79.74
2024-05-09T03:15:14.725Z,80.20
2024-05-09T03:18:20.084Z,79.79
2024-05-09T03:21:23.159Z,79.86
2024-05-09T03:24:27.710Z,79.89
2024-05-09T03:27:32.173Z,79.91
2024-05-09T03:30:42.638Z,80.08
2024-05-09T03:33:48.261Z,80.07
2024-05-09T03:36:57.385Z,79.56
2024-05-09T03:40:02.938Z,79.95
2024-05-09T03:43:20.620Z,80.10
2024-05-09T03:46:25.555Z,79.89
2024-05-09T03:49:28.221Z,79.67
2024-05-09T03:52:33.375Z,80.06
2024-05-09T03:55:35.089Z,79.55
2024-05-09T03:58:42.116Z,79.88
2024-05-09T04:01:44.258Z,79.80
2024-05-09T04:04:51.633Z,79.83
2024-05-09T04:07:53.745Z,79.61
2024-05-09T04:11:01.600Z,79.75
2024-05-09T04:14:06.032Z,79.80
2024-05-09T04:17:11.826Z,79.86
2024-05-09T04:20:28.726Z,79.83
2024-05-09T04:23:41.644Z,79.51
2024-05-09T04:26:44.898Z,79.94
2024-05-09T04:29:51.850Z,80.12
2024-05-09T04:32:53.683Z,79.80
2024-05-09T04:35:58.662Z,79.28
2024-05-09T04:39:00.415Z,80.11
2024-05-09T04:42:04.862Z,79.92
2024-05-09T04:45:10.374Z,79.34
2024-05-09T04:48:17.717Z,79.65
2024-05-09T04:51:19.959Z,79.97
2024-05-09T04:54:33.722Z,79.69
2024-05-09T04:57:41.164Z,80.03
2024-05-09T05:00:50.636Z,79.58
2024-05-09T05:03:52.697Z,79.98
2024-05-09T05:07:01.372Z,79.88
2024-05-09T05:10:11.744Z,79.83
2024-05-09T05:13:18.495Z,79.95
2024-05-09T05:16:26.130Z,79.66
2024-05-09T05:19:28.064Z,79.58
2024-05-09T05:22:32.457Z,79.71
2024-05-09T05:25:34.177Z,79.88
2024-05-09T05:28:39.262Z,79.90
2024-05-09T05:31:43.578Z,80.33
2024-05-09T05:34:47.895Z,80.51
2024-05-09T05:37:52.310Z,80.00
2024-05-09T05:40:54.074Z,80.02
2024-05-09T05:43:58.431Z,79.95
2024-05-09T05:47:03.040Z,80.15
2024-05-09T05:50:20.440Z,80.01
2024-05-09T05:53:31.188Z,80.24
2024-05-09T05:56:33.032Z,79.99
2024-05-09T05:59:37.375Z,80.28
2024-05-09T06:02:44.510Z,80.35
2024-05-09T06:05:49.094Z,80.33
2024-05-09T06:08:53.508Z,80.24
2024-05-09T06:11:55.389Z,80.36
2024-05-09T06:15:00.865Z,80.28
2024-05-09T06:18:11.982Z,80.21
2024-05-09T06:21:19.390Z,80.16
2024-05-09T06:24:21.193Z,80.26
2024-05-09T06:27:25.566Z,80.24
2024-05-09T06:30:36.578Z,80.37
2024-05-09T06:33:46.688Z,80.28
2024-05-09T06:36:48.680Z,80.43
2024-05-09T06:39:52.980Z,80.49
2024-05-09T06:42:57.557Z,80.42
2024-05-09T06:46:01.855Z,80.39
2024-05-09T06:49:08.444Z,80.52
2024-05-09T06:52:13.981Z,80.70
2024-05-09T06:55:15.851Z,80.82
2024-05-09T06:58:20.225Z,80.29
2024-05-09T07:01:24.446Z,80.82
2024-05-09T07:04:31.442Z,80.22
2024-05-09T07:07:35.874Z,80.32
2024-05-09T07:10:38.309Z,80.54
2024-05-09T07:13:42.660Z,80.53
2024-05-09T07:16:47.065Z,80.83
2024-05-09T07:19:51.548Z,80.87
2024-05-09T07:22:55.921Z,81.36
2024-05-09T07:25:58.716Z,80.89
2024-05-09T07:29:03.093Z,80.62
2024-05-09T07:32:06.763Z,81.03
2024-05-09T07:35:13.971Z,80.75
2024-05-09T07:38:15.751Z,80.80
2024-05-09T07:41:20.083Z,80.31
2024-05-09T07:44:21.787Z,80.14
2024-05-09T07:48:56.972Z,80.24
2024-05-09T07:52:37.906Z,80.42
2024-05-09T07:54:15.207Z,78.81
2024-05-09T07:57:20.039Z,79.69
2024-05-09T08:00:29.516Z,80.18
2024-05-09T08:03:35.947Z,80.41
2024-05-09T08:06:40.364Z,80.61
2024-05-09T08:09:44.638Z,80.35
2024-05-09T08:12:46.501Z,80.49
2024-05-09T08:15:51.810Z,80.62
2024-05-09T08:18:53.938Z,80.40
2024-05-09T08:22:06.854Z,80.20
2024-05-09T08:25:10.687Z,80.34
2024-05-09T08:28:16.550Z,80.51
2024-05-09T08:31:21.022Z,81.07
2024-05-09T08:34:22.975Z,80.89
2024-05-09T08:37:34.937Z,80.75
2024-05-09T08:40:39.603Z,80.93
2024-05-09T08:43:44.158Z,79.35
2024-05-09T08:46:47.653Z,79.72
2024-05-09T08:49:58.367Z,80.37
2024-05-09T08:53:02.798Z,80.38
2024-05-09T08:56:12.208Z,80.39
2024-05-09T08:59:20.814Z,79.84
2024-05-09T09:02:25.353Z,80.49
2024-05-09T09:05:31.204Z,80.50
2024-05-09T09:08:41.988Z,80.95
2024-05-09T09:11:43.672Z,80.76
2024-05-09T09:14:47.970Z,80.62
2024-05-09T09:17:54.765Z,80.57
2024-05-09T09:20:59.233Z,80.61
2024-05-09T09:24:03.741Z,80.51
2024-05-09T09:27:08.621Z,80.70
2024-05-09T09:30:22.949Z,80.67
2024-05-09T09:33:36.161Z,81.26
2024-05-09T09:36:40.990Z,80.87
2024-05-09T09:39:49.210Z,80.81
2024-05-09T09:43:00.269Z,79.98
2024-05-09T09:46:09.553Z,80.12
2024-05-09T09:49:14.533Z,80.30
2024-05-09T09:52:19.911Z,80.49
2024-05-09T09:55:25.819Z,80.77
2024-05-09T09:58:32.497Z,80.49
2024-05-09T10:01:35.990Z,80.75
2024-05-09T10:04:41.864Z,80.71
2024-05-09T10:07:46.920Z,80.59
2024-05-09T10:10:55.738Z,80.63
2024-05-09T10:14:00.668Z,80.70
2024-05-09T10:17:06.196Z,80.96
2024-05-09T10:20:18.259Z,80.61
2024-05-09T10:23:25.713Z,81.15
2024-05-09T10:26:41.198Z,80.65
2024-05-09T10:29:54.930Z,80.74
2024-05-09T10:32:59.355Z,81.12
2024-05-09T10:36:03.302Z,80.92
2024-05-09T10:39:08.039Z,80.90
2024-05-09T10:42:12.665Z,81.05
2024-05-09T10:45:19.228Z,80.85
2024-05-09T10:48:21.402Z,80.80
2024-05-09T10:51:27.436Z,80.62
2024-05-09T10:54:35.664Z,81.13
2024-05-09T10:57:46.273Z,80.85
2024-05-09T11:00:48.269Z,80.50
2024-05-09T11:03:54.082Z,80.65
2024-05-09T11:06:57.467Z,80.61
2024-05-09T11:10:02.242Z,80.69
2024-05-09T11:13:06.734Z,80.46
2024-05-09T11:16:20.196Z,80.38
2024-05-09T11:19:22.368Z,80.16
2024-05-09T11:22:27.318Z,80.44
2024-05-09T11:25:30.475Z,80.38
2024-05-09T11:28:37.416Z,80.58
2024-05-09T11:31:45.748Z,81.09
2024-05-09T11:34:50.086Z,80.70
2024-05-09T11:37:51.879Z,80.79
2024-05-09T11:40:56.319Z,80.50
2024-05-09T11:44:00.569Z,80.83
2024-05-09T11:47:05.419Z,81.04
2024-05-09T11:50:08.332Z,80.86
2024-05-09T11:53:17.049Z,80.69
2024-05-09T11:56:22.153Z,80.86
2024-05-09T11:59:26.588Z,81.08
2024-05-09T12:02:30.922Z,80.75
2024-05-09T12:05:33.996Z,81.02
2024-05-09T12:08:38.995Z,81.02
2024-05-09T12:11:40.744Z,81.17
2024-05-09T12:14:47.649Z,81.09
2024-05-09T12:17:50.949Z,80.93
2024-05-09T12:20:55.466Z,80.84
2024-05-09T12:23:59.797Z,81.18
2024-05-09T12:27:01.487Z,81.14
2024-05-09T12:30:14.171Z,81.15
2024-05-09T12:33:19.919Z,81.33
2024-05-09T12:36:21.839Z,81.12
2024-05-09T12:39:26.057Z,80.92
2024-05-09T12:42:29.086Z,80.85
2024-05-09T12:45:37.505Z,80.45
2024-05-09T12:48:39.622Z,80.83
2024-05-09T12:51:44.166Z,80.65
2024-05-09T12:54:48.456Z,80.74
2024-05-09T12:57:50.443Z,80.79
2024-05-09T13:00:57.399Z,80.97
2024-05-09T13:04:02.014Z,81.07
2024-05-09T13:07:06.396Z,81.10
2024-05-09T13:10:16.289Z,81.18
2024-05-09T13:13:24.408Z,80.80
2024-05-09T13:16:29.123Z,80.67
2024-05-09T13:19:33.675Z,80.67
2024-05-09T13:22:35.839Z,80.79
2024-05-09T13:25:40.471Z,80.79
2024-05-09T13:28:42.650Z,80.84
2024-05-09T13:31:50.467Z,80.93
2024-05-09T13:34:52.643Z,80.98
2024-05-09T13:37:57.442Z,80.98
2024-05-09T13:40:59.131Z,81.23
2024-05-09T13:44:03.608Z,81.21
2024-05-09T13:47:08.709Z,81.12
2024-05-09T13:50:20.579Z,81.03
2024-05-09T13:53:29.768Z,81.10
2024-05-09T13:56:34.058Z,81.08
2024-05-09T13:59:35.869Z,81.17
2024-05-09T14:02:43.487Z,81.25
2024-05-09T14:05:48.257Z,81.04
2024-05-09T14:08:52.708Z,81.18
2024-05-09T14:11:54.513Z,81.42
2024-05-09T14:14:58.886Z,81.28
2024-05-09T14:18:07.013Z,81.44
2024-05-09T14:21:09.648Z,81.37
2024-05-09T14:24:13.884Z,81.07
2024-05-09T14:27:15.630Z,81.31
2024-05-09T14:30:30.110Z,81.17
2024-05-09T14:33:42.901Z,81.18
2024-05-09T14:36:44.788Z,81.74
2024-05-09T14:39:49.158Z,81.18
2024-05-09T14:42:50.937Z,81.19
2024-05-09T14:45:55.859Z,81.22
2024-05-09T14:49:00.636Z,81.36
2024-05-09T14:52:05.327Z,81.15
2024-05-09T14:55:10.113Z,81.48
2024-05-09T14:58:16.575Z,81.38
2024-05-09T15:01:25.435Z,81.25
2024-05-09T15:04:32.016Z,81.24
2024-05-09T15:07:38.274Z,81.31
2024-05-09T15:10:41.473Z,81.40
2024-05-09T15:13:48.598Z,81.26
2024-05-09T15:16:50.831Z,81.25
2024-05-09T15:19:59.038Z,81.40
2024-05-09T15:23:01.865Z,81.41
2024-05-09T15:26:07.139Z,81.36
2024-05-09T15:29:09.338Z,81.04
2024-05-09T15:32:14.781Z,81.48
2024-05-09T15:35:22.886Z,81.36
2024-05-09T15:38:28.479Z,81.61
2024-05-09T15:41:31.396Z,81.17
2024-05-09T15:44:36.991Z,81.47
2024-05-09T15:47:41.725Z,81.05
2024-05-09T15:50:46.925Z,81.10
2024-05-09T15:53:51.605Z,81.20
2024-05-09T15:56:56.131Z,81.65
2024-05-09T16:00:00.680Z,81.28
2024-05-09T16:03:02.483Z,81.26
2024-05-09T16:06:09.439Z,81.12
2024-05-09T16:09:11.196Z,81.24
2024-05-09T16:12:15.800Z,81.37
2024-05-09T16:15:17.595Z,81.54
2024-05-09T16:18:22.240Z,81.65
2024-05-09T16:21:26.488Z,81.20
2024-05-09T16:24:30.840Z,81.37
2024-05-09T16:27:35.332Z,81.50
2024-05-09T16:30:37.184Z,81.62
2024-05-09T16:33:41.723Z,81.32
2024-05-09T16:36:46.266Z,81.40
2024-05-09T16:39:50.643Z,81.45
2024-05-09T16:42:55.065Z,81.72
2024-05-09T16:45:57.109Z,81.42
2024-05-09T16:49:01.543Z,81.72
2024-05-09T16:52:06.735Z,81.66
2024-05-09T16:55:11.162Z,81.24
2024-05-09T16:58:16.018Z,81.24
2024-05-09T17:01:20.782Z,81.74
2024-05-09T17:04:22.660Z,81.46
2024-05-09T17:07:30.192Z,81.63
2024-05-09T17:10:34.247Z,81.08
2024-05-09T17:13:40.893Z,81.78
2024-05-09T17:16:45.347Z,81.38
2024-05-09T17:19:50.207Z,81.71
2024-05-09T17:22:54.695Z,81.59
2024-05-09T17:25:59.005Z,81.30
2024-05-09T17:29:00.792Z,81.63
2024-05-09T17:32:06.301Z,81.49
2024-05-09T17:35:08.241Z,81.49
2024-05-09T17:38:15.439Z,81.53
2024-05-09T17:41:19.678Z,81.53
2024-05-09T17:44:21.327Z,81.47
2024-05-09T17:47:25.719Z,81.44
2024-05-09T17:50:34.913Z,81.50
2024-05-09T17:53:44.079Z,81.68
2024-05-09T17:56:46.087Z,81.56
2024-05-09T17:59:52.042Z,81.56
2024-05-09T18:02:53.784Z,81.81
2024-05-09T18:05:58.174Z,81.56
2024-05-09T18:09:05.587Z,81.75
2024-05-09T18:12:07.832Z,81.36
2024-05-09T18:15:12.151Z,81.54
2024-05-09T18:18:14.138Z,81.53
2024-05-09T18:21:18.592Z,81.41
2024-05-09T18:24:25.661Z,81.72
2024-05-09T18:27:30.941Z,81.58
2024-05-09T18:30:35.931Z,81.67
2024-05-09T18:33:42.215Z,81.42
2024-05-09T18:36:47.688Z,81.60
2024-05-09T18:39:52.160Z,81.48
2024-05-09T18:42:57.019Z,81.31
2024-05-09T18:45:59.268Z,81.21
2024-05-09T18:49:04.038Z,81.57
2024-05-09T18:52:10.838Z,81.17
2024-05-09T18:55:15.540Z,81.52
2024-05-09T18:58:20.572Z,81.45
2024-05-09T19:01:26.275Z,81.94
2024-05-09T19:04:28.761Z,81.78
2024-05-09T19:07:33.304Z,81.56
2024-05-09T19:10:39.445Z,81.68
2024-05-09T19:13:43.852Z,81.65
2024-05-09T19:16:48.349Z,81.33
2024-05-09T19:19:52.553Z,81.71
2024-05-09T19:22:56.927Z,81.69
2024-05-09T19:26:01.420Z,81.70
2024-05-09T19:29:06.967Z,81.71
2024-05-09T19:32:08.782Z,81.55
2024-05-09T19:35:13.205Z,81.66
2024-05-09T19:38:15.045Z,81.40
2024-05-09T19:41:22.593Z,81.54
2024-05-09T19:44:27.139Z,81.78
2024-05-09T19:47:29.081Z,81.73
2024-05-09T19:50:41.214Z,81.86
2024-05-09T19:53:45.801Z,81.50
2024-05-09T19:56:52.773Z,81.67
2024-05-09T19:59:57.147Z,81.86
2024-05-09T20:02:59.001Z,81.73
2024-05-09T20:06:05.258Z,81.93
2024-05-09T20:09:07.212Z,81.76
2024-05-09T20:12:14.359Z,81.91
2024-05-09T20:15:16.348Z,81.69
2024-05-09T20:18:21.082Z,81.75
2024-05-09T20:21:24.048Z,81.59
2024-05-09T20:24:28.347Z,81.51
2024-05-09T20:27:32.965Z,81.85
2024-05-09T20:30:38.289Z,81.49
2024-05-09T20:33:40.170Z,81.69
2024-05-09T20:36:44.799Z,81.94
2024-05-09T20:39:46.549Z,81.69
2024-05-09T20:42:53.509Z,81.73
2024-05-09T20:45:55.298Z,81.50
2024-05-09T20:48:59.894Z,81.49
2024-05-09T20:52:01.632Z,81.76
2024-05-09T20:55:06.056Z,81.72
2024-05-09T20:58:13.809Z,82.04
2024-05-09T21:01:16.033Z,81.56
2024-05-09T21:04:21.081Z,81.55
2024-05-09T21:07:22.919Z,81.95
2024-05-09T21:10:31.551Z,81.66
2024-05-09T21:13:39.820Z,81.53
2024-05-09T21:16:41.641Z,81.69
2024-05-09T21:19:46.108Z,81.70
2024-05-09T21:22:47.768Z,81.74
2024-05-09T21:25:52.020Z,81.88
2024-05-09T21:28:56.326Z,81.58
2024-05-09T21:32:00.891Z,81.69
2024-05-09T21:35:02.605Z,81.75
2024-05-09T21:38:07.860Z,81.40
2024-05-09T21:41:12.989Z,81.60
2024-05-09T21:44:17.471Z,81.29
2024-05-09T21:47:22.988Z,81.37
2024-05-09T21:50:32.384Z,81.57
2024-05-09T21:53:45.307Z,81.65
2024-05-09T21:56:47.316Z,81.53
2024-05-09T21:59:55.405Z,81.31
2024-05-09T22:02:58.132Z,81.62
2024-05-09T22:06:02.568Z,81.74
2024-05-09T22:09:05.588Z,81.77
2024-05-09T22:12:09.922Z,81.47
2024-05-09T22:15:14.358Z,81.44
2024-05-09T22:18:18.865Z,81.38
2024-05-09T22:21:20.669Z,81.17
2024-05-09T22:24:24.999Z,81.62
2024-05-09T22:27:26.742Z,81.86
2024-05-09T22:30:37.955Z,81.46
2024-05-09T22:33:43.987Z,81.38
2024-05-09T22:36:50.026Z,81.29
2024-05-09T22:39:53.853Z,81.49
2024-05-09T22:43:00.362Z,81.00
2024-05-09T22:46:12.671Z,81.26
2024-05-09T22:49:14.939Z,81.28
2024-05-09T22:52:20.334Z,81.76
2024-05-09T22:55:22.612Z,81.55
2024-05-09T22:58:28.723Z,80.81
2024-05-09T23:01:33.320Z,81.33
2024-05-09T23:04:37.972Z,81.11
2024-05-09T23:07:39.856Z,81.41
2024-05-09T23:10:45.343Z,81.50
2024-05-09T23:13:48.386Z,81.43
2024-05-09T23:16:55.483Z,81.21
2024-05-09T23:20:00.191Z,81.39
2024-05-09T23:23:05.154Z,81.46
2024-05-09T23:26:07.063Z,81.37
2024-05-09T23:29:11.629Z,81.80
2024-05-09T23:32:16.490Z,81.38
2024-05-09T23:35:22.216Z,81.15
2024-05-09T23:38:25.015Z,81.45
2024-05-09T23:41:30.183Z,81.44
2024-05-09T23:44:36.176Z,81.19
2024-05-09T23:47:42.463Z,81.05
2024-05-09T23:50:52.396Z,81.08
2024-05-09T23:53:54.359Z,80.92
2024-05-09T23:56:59.719Z,81.75
